createdAt,value
2018-07-25T00:00:37.711Z,24.22
2018-07-25T00:01:37.707Z,24.16
2018-07-25T00:03:30.669Z,24.01
2018-07-25T00:04:30.669Z,24.10
2018-07-25T00:06:23.612Z,24.08
2018-07-25T00:07:23.628Z,23.95
2018-07-25T00:09:16.606Z,23.95
2018-07-25T00:10:16.600Z,23.94
2018-07-25T00:12:09.537Z,23.87
2018-07-25T00:13:09.552Z,23.70
2018-07-25T00:15:02.515Z,23.77
2018-07-25T00:16:02.509Z,23.80
2018-07-25T00:17:55.442Z,23.89
2018-07-25T00:18:55.462Z,23.83
2018-07-25T00:20:48.418Z,23.92
2018-07-25T00:21:48.413Z,23.89
2018-07-25T00:23:41.365Z,23.98
2018-07-25T00:24:41.363Z,23.98
2018-07-25T00:26:34.303Z,23.92
2018-07-25T00:27:34.323Z,23.98
2018-07-25T00:29:27.297Z,24.04
2018-07-25T00:30:27.297Z,24.02
2018-07-25T00:32:20.236Z,24.01
2018-07-25T00:33:20.247Z,23.95
2018-07-25T00:35:13.204Z,23.97
2018-07-25T00:36:13.241Z,23.92
2018-07-25T00:38:06.142Z,23.90
2018-07-25T00:39:06.156Z,23.83
2018-07-25T00:40:59.109Z,23.86
2018-07-25T00:41:59.106Z,23.72
2018-07-25T00:43:52.055Z,23.67
2018-07-25T00:44:52.054Z,23.64
2018-07-25T00:46:44.994Z,23.57
2018-07-25T00:47:45.012Z,23.62
2018-07-25T00:49:37.963Z,23.58
2018-07-25T00:50:37.962Z,23.53
2018-07-25T00:52:30.907Z,23.50
2018-07-25T00:53:30.919Z,23.57
2018-07-25T00:55:23.878Z,23.46
2018-07-25T00:56:23.869Z,23.31
2018-07-25T00:58:16.808Z,23.24
2018-07-25T00:59:16.829Z,23.26
2018-07-25T01:01:09.776Z,23.27
2018-07-25T01:02:09.778Z,23.14
2018-07-25T01:04:02.730Z,23.20
2018-07-25T01:05:02.733Z,23.17
2018-07-25T01:06:55.663Z,23.12
2018-07-25T01:07:55.685Z,23.15
2018-07-25T01:09:48.636Z,23.24
2018-07-25T01:10:48.635Z,23.20
2018-07-25T01:12:41.570Z,23.20
2018-07-25T01:13:41.588Z,23.24
2018-07-25T01:15:34.545Z,23.26
2018-07-25T01:16:34.538Z,23.23
2018-07-25T01:18:27.473Z,23.22
2018-07-25T01:19:27.493Z,23.23
2018-07-25T01:21:20.454Z,23.27
2018-07-25T01:22:20.443Z,23.20
2018-07-25T01:24:13.398Z,23.27
2018-07-25T01:25:13.395Z,23.15
2018-07-25T01:27:06.338Z,23.29
2018-07-25T01:28:06.354Z,23.29
2018-07-25T01:29:59.306Z,23.34
2018-07-25T01:30:59.303Z,23.32
2018-07-25T01:32:52.244Z,23.17
2018-07-25T01:33:52.260Z,23.12
2018-07-25T01:35:45.208Z,23.02
2018-07-25T01:36:45.205Z,22.99
2018-07-25T01:38:38.143Z,22.92
2018-07-25T01:39:38.163Z,22.84
2018-07-25T01:41:31.115Z,22.89
2018-07-25T01:42:31.115Z,22.84
2018-07-25T01:44:24.065Z,22.86
2018-07-25T01:45:24.065Z,22.89
2018-07-25T01:47:17.000Z,22.84
2018-07-25T01:48:17.021Z,22.94
2018-07-25T01:50:09.970Z,22.94
2018-07-25T01:51:09.968Z,22.86
2018-07-25T01:53:02.912Z,22.89
2018-07-25T01:54:02.930Z,22.86
2018-07-25T02:23:33.502Z,22.75
2018-07-25T02:24:33.492Z,22.67
2018-07-25T02:26:26.431Z,22.75
2018-07-25T02:27:26.416Z,22.57
2018-07-25T02:29:19.351Z,22.59
2018-07-25T02:30:19.358Z,22.62
2018-07-25T02:32:12.333Z,22.64
2018-07-25T02:33:12.304Z,22.54
2018-07-25T02:35:05.252Z,22.67
2018-07-25T02:36:05.249Z,22.62
2018-07-25T02:37:58.184Z,22.67
2018-07-25T02:38:58.194Z,22.49
2018-07-25T02:40:51.145Z,22.57
2018-07-25T02:41:51.139Z,22.53
2018-07-25T02:43:44.141Z,22.47
2018-07-25T02:44:44.083Z,22.49
2018-07-25T02:46:37.037Z,22.43
2018-07-25T02:47:37.036Z,22.39
2018-07-25T02:49:29.963Z,22.46
2018-07-25T02:50:29.982Z,22.43
2018-07-25T02:52:22.933Z,22.31
2018-07-25T02:53:22.927Z,22.34
2018-07-25T02:55:15.876Z,22.28
2018-07-25T02:56:15.875Z,22.25
2018-07-25T02:58:08.806Z,22.37
2018-07-25T02:59:08.823Z,22.39
2018-07-25T03:01:01.771Z,22.34
2018-07-25T03:02:01.783Z,22.27
2018-07-25T03:03:54.696Z,22.41
2018-07-25T03:04:54.721Z,22.34
2018-07-25T03:06:47.668Z,22.38
2018-07-25T03:07:47.664Z,22.39
2018-07-25T03:09:40.613Z,22.34
2018-07-25T03:10:40.614Z,22.35
2018-07-25T03:12:33.567Z,22.32
2018-07-25T03:13:33.562Z,22.29
2018-07-25T03:15:26.527Z,22.31
2018-07-25T03:16:26.511Z,22.31
2018-07-25T03:18:19.443Z,22.22
2018-07-25T03:19:19.460Z,22.16
2018-07-25T03:21:12.412Z,22.10
2018-07-25T03:22:12.406Z,22.14
2018-07-25T03:24:05.345Z,22.10
2018-07-25T03:25:05.352Z,22.10
2018-07-25T03:26:58.301Z,22.19
2018-07-25T03:27:58.305Z,22.14
2018-07-25T03:29:51.254Z,22.10
2018-07-25T03:30:51.258Z,22.09
2018-07-25T03:32:44.195Z,22.12
2018-07-25T03:33:44.207Z,22.13
2018-07-25T03:35:37.159Z,22.13
2018-07-25T03:36:37.160Z,22.14
2018-07-25T03:38:30.090Z,22.14
2018-07-25T03:39:30.103Z,22.13
2018-07-25T03:41:23.056Z,22.12
2018-07-25T03:42:23.054Z,22.09
2018-07-25T03:44:15.990Z,21.98
2018-07-25T03:45:16.004Z,22.07
2018-07-25T03:47:08.954Z,21.94
2018-07-25T03:48:08.951Z,21.79
2018-07-25T03:50:01.917Z,21.97
2018-07-25T03:51:01.896Z,21.95
2018-07-25T03:52:54.832Z,22.01
2018-07-25T03:53:54.847Z,22.04
2018-07-25T03:55:47.815Z,22.01
2018-07-25T03:56:47.801Z,21.98
2018-07-25T03:58:40.730Z,21.95
2018-07-25T03:59:40.749Z,21.95
2018-07-25T04:01:33.705Z,21.91
2018-07-25T04:02:33.755Z,21.78
2018-07-25T04:04:26.633Z,21.69
2018-07-25T04:05:26.653Z,21.66
2018-07-25T04:07:19.606Z,21.57
2018-07-25T04:08:19.633Z,21.54
2018-07-25T04:10:12.534Z,21.50
2018-07-25T04:11:12.552Z,21.41
2018-07-25T04:13:05.516Z,21.42
2018-07-25T04:14:05.511Z,21.44
2018-07-25T04:15:58.466Z,21.46
2018-07-25T04:16:58.454Z,21.46
2018-07-25T04:18:51.391Z,21.44
2018-07-25T04:19:51.405Z,21.50
2018-07-25T04:21:44.358Z,21.56
2018-07-25T04:22:44.355Z,21.63
2018-07-25T04:24:37.293Z,21.78
2018-07-25T04:25:37.305Z,21.81
2018-07-25T04:27:30.254Z,21.83
2018-07-25T04:28:30.253Z,21.83
2018-07-25T04:30:23.182Z,21.88
2018-07-25T04:31:23.197Z,22.01
2018-07-25T04:33:16.152Z,21.78
2018-07-25T04:34:16.153Z,21.94
2018-07-25T04:36:09.599Z,21.95
2018-07-25T04:37:09.595Z,21.98
2018-07-25T04:39:02.529Z,21.94
2018-07-25T04:40:02.548Z,21.99
2018-07-25T04:41:55.494Z,21.82
2018-07-25T04:42:55.497Z,21.81
2018-07-25T04:44:48.442Z,21.83
2018-07-25T04:45:48.457Z,21.92
2018-07-25T04:47:41.402Z,22.02
2018-07-25T04:48:41.406Z,22.13
2018-07-25T04:50:34.332Z,22.13
2018-07-25T04:51:34.345Z,22.37
2018-07-25T04:53:27.300Z,22.46
2018-07-25T04:54:27.294Z,22.43
2018-07-25T04:56:20.249Z,22.60
2018-07-25T04:57:20.248Z,22.69
2018-07-25T04:59:13.190Z,22.59
2018-07-25T05:00:13.205Z,22.57
2018-07-25T05:02:06.153Z,22.64
2018-07-25T05:03:06.152Z,22.69
2018-07-25T05:04:59.082Z,22.64
2018-07-25T05:05:59.099Z,22.67
2018-07-25T05:07:52.061Z,22.77
2018-07-25T05:08:52.052Z,22.89
2018-07-25T05:10:44.994Z,22.89
2018-07-25T05:11:45.003Z,22.87
2018-07-25T05:13:37.965Z,22.83
2018-07-25T05:14:37.953Z,22.87
2018-07-25T05:16:30.915Z,22.84
2018-07-25T05:17:30.913Z,22.82
2018-07-25T05:19:23.851Z,22.89
2018-07-25T05:20:23.866Z,22.84
2018-07-25T05:22:16.829Z,23.01
2018-07-25T05:23:16.860Z,23.05
2018-07-25T05:25:09.758Z,23.09
2018-07-25T05:26:09.777Z,23.22
2018-07-25T05:28:02.740Z,23.24
2018-07-25T05:29:02.740Z,23.31
2018-07-25T05:30:55.671Z,23.42
2018-07-25T05:31:55.693Z,23.47
2018-07-25T05:33:48.648Z,23.42
2018-07-25T05:34:48.646Z,23.43
2018-07-25T05:36:41.604Z,23.57
2018-07-25T05:37:41.602Z,23.82
2018-07-25T05:39:34.543Z,24.23
2018-07-25T05:40:34.560Z,24.47
2018-07-25T05:42:27.519Z,24.53
2018-07-25T05:43:27.514Z,25.00
2018-07-25T05:45:20.450Z,26.22
2018-07-25T05:46:20.471Z,26.62
2018-07-25T05:48:13.431Z,26.73
2018-07-25T05:49:13.425Z,26.46
2018-07-25T05:51:06.359Z,26.15
2018-07-25T05:52:06.380Z,26.67
2018-07-25T05:53:59.337Z,28.09
2018-07-25T05:54:59.335Z,28.73
2018-07-25T05:56:52.301Z,29.78
2018-07-25T05:57:52.292Z,30.16
2018-07-25T05:59:45.230Z,30.83
2018-07-25T06:00:45.250Z,30.96
2018-07-25T06:02:38.211Z,31.39
2018-07-25T06:03:38.219Z,31.45
2018-07-25T06:05:31.146Z,31.80
2018-07-25T06:06:31.170Z,31.99
2018-07-25T06:08:24.133Z,32.06
2018-07-25T06:09:24.140Z,32.37
2018-07-25T06:11:17.075Z,32.42
2018-07-25T06:12:17.095Z,32.52
2018-07-25T06:14:10.075Z,32.69
2018-07-25T06:15:10.065Z,32.86
2018-07-25T06:17:03.029Z,33.20
2018-07-25T06:18:03.032Z,33.33
2018-07-25T06:19:55.969Z,32.99
2018-07-25T06:20:55.995Z,32.86
2018-07-25T06:22:48.964Z,32.89
2018-07-25T06:23:48.966Z,33.03
2018-07-25T06:25:41.913Z,32.89
2018-07-25T06:26:41.937Z,32.99
2018-07-25T06:28:34.902Z,32.80
2018-07-25T06:29:34.905Z,32.76
2018-07-25T06:31:27.883Z,33.07
2018-07-25T06:32:27.874Z,33.33
2018-07-25T06:34:20.841Z,33.64
2018-07-25T06:35:20.846Z,33.53
2018-07-25T06:37:13.814Z,33.86
2018-07-25T06:38:13.819Z,33.70
2018-07-25T06:40:06.772Z,33.86
2018-07-25T06:41:06.790Z,33.22
2018-07-25T06:42:59.752Z,32.67
2018-07-25T06:43:59.761Z,32.70
2018-07-25T06:45:52.711Z,32.81
2018-07-25T06:46:52.739Z,33.19
2018-07-25T06:48:45.709Z,32.84
2018-07-25T06:49:45.710Z,32.84
2018-07-25T06:51:38.656Z,33.07
2018-07-25T06:52:38.688Z,33.39
2018-07-25T06:54:31.651Z,33.14
2018-07-25T06:55:31.652Z,32.96
2018-07-25T06:57:24.657Z,33.20
2018-07-25T06:58:24.627Z,33.45
2018-07-25T07:00:17.577Z,34.02
2018-07-25T07:01:17.602Z,34.08
2018-07-25T07:03:10.569Z,34.08
2018-07-25T07:04:10.573Z,34.19
2018-07-25T07:06:03.525Z,34.31
2018-07-25T07:07:03.590Z,34.14
2018-07-25T07:08:56.522Z,34.01
2018-07-25T07:09:56.524Z,34.34
2018-07-25T07:11:49.466Z,34.60
2018-07-25T07:12:49.498Z,34.73
2018-07-25T07:14:42.462Z,34.64
2018-07-25T07:15:42.468Z,34.53
2018-07-25T07:17:35.442Z,34.11
2018-07-25T07:18:35.443Z,34.14
2018-07-25T07:20:28.395Z,34.35
2018-07-25T07:21:28.418Z,34.35
2018-07-25T07:23:21.386Z,34.32
2018-07-25T07:24:21.391Z,34.36
2018-07-25T07:26:14.339Z,34.39
2018-07-25T07:27:14.365Z,34.19
2018-07-25T07:29:07.338Z,33.90
2018-07-25T07:30:07.339Z,34.09
2018-07-25T07:32:00.290Z,34.02
2018-07-25T07:33:00.317Z,34.24
2018-07-25T07:34:53.285Z,34.17
2018-07-25T07:35:53.291Z,34.02
2018-07-25T07:37:46.326Z,34.17
2018-07-25T07:38:46.258Z,34.05
2018-07-25T07:40:39.214Z,34.42
2018-07-25T07:41:39.239Z,34.08
2018-07-25T07:43:32.210Z,33.98
2018-07-25T07:44:32.217Z,34.02
2018-07-25T07:46:25.169Z,34.24
2018-07-25T07:47:25.199Z,34.41
2018-07-25T07:49:18.168Z,34.51
2018-07-25T07:50:18.176Z,34.29
2018-07-25T07:52:11.130Z,34.44
2018-07-25T07:53:11.160Z,34.41
2018-07-25T07:55:04.126Z,33.87
2018-07-25T07:56:04.129Z,33.94
2018-07-25T07:57:57.104Z,33.98
2018-07-25T07:58:57.106Z,33.82
2018-07-25T08:00:50.052Z,34.02
2018-07-25T08:01:50.076Z,33.98
2018-07-25T08:03:43.045Z,33.85
2018-07-25T08:04:43.046Z,34.08
2018-07-25T08:06:36.006Z,34.08
2018-07-25T08:07:36.025Z,33.87
2018-07-25T08:09:28.997Z,33.51
2018-07-25T08:10:29.006Z,33.58
2018-07-25T08:12:21.952Z,33.58
2018-07-25T08:13:21.978Z,33.64
2018-07-25T08:15:14.943Z,33.51
2018-07-25T08:16:14.956Z,33.52
2018-07-25T08:18:07.927Z,33.52
2018-07-25T08:19:07.934Z,33.52
2018-07-25T08:21:00.904Z,33.29
2018-07-25T08:22:00.902Z,33.34
2018-07-25T08:23:53.868Z,33.43
2018-07-25T08:24:53.877Z,33.42
2018-07-25T08:26:46.822Z,33.41
2018-07-25T08:27:46.847Z,33.17
2018-07-25T08:29:39.814Z,32.99
2018-07-25T08:30:39.817Z,32.80
2018-07-25T08:32:32.768Z,32.70
2018-07-25T08:33:32.791Z,32.74
2018-07-25T08:35:25.764Z,32.59
2018-07-25T08:36:25.763Z,32.58
2018-07-25T08:38:18.728Z,32.48
2018-07-25T08:39:18.730Z,32.29
2018-07-25T08:41:11.749Z,32.27
2018-07-25T08:42:11.707Z,32.30
2018-07-25T08:44:04.678Z,32.51
2018-07-25T08:45:04.679Z,32.43
2018-07-25T08:46:57.629Z,32.43
2018-07-25T08:47:57.649Z,32.43
2018-07-25T08:49:50.621Z,32.42
2018-07-25T08:50:50.626Z,32.43
2018-07-25T08:52:43.595Z,32.52
2018-07-25T08:53:43.595Z,32.58
2018-07-25T08:55:36.560Z,32.66
2018-07-25T08:56:36.563Z,32.66
2018-07-25T08:58:29.521Z,32.64
2018-07-25T08:59:29.525Z,32.52
2018-07-25T09:01:22.472Z,32.70
2018-07-25T09:02:22.495Z,32.77
2018-07-25T09:04:15.454Z,32.80
2018-07-25T09:05:15.460Z,32.81
2018-07-25T09:07:08.408Z,32.27
2018-07-25T09:08:08.438Z,32.42
2018-07-25T09:10:01.391Z,32.70
2018-07-25T09:11:01.399Z,32.73
2018-07-25T09:12:54.399Z,32.84
2018-07-25T09:13:54.365Z,33.03
2018-07-25T09:15:47.327Z,32.74
2018-07-25T09:16:47.357Z,32.79
2018-07-25T09:18:40.292Z,33.08
2018-07-25T09:19:40.351Z,33.22
2018-07-25T09:21:33.238Z,33.39
2018-07-25T09:22:33.261Z,33.43
2018-07-25T09:24:26.252Z,33.31
2018-07-25T09:25:26.319Z,33.31
2018-07-25T09:27:19.199Z,33.04
2018-07-25T09:28:19.222Z,32.96
2018-07-25T09:30:12.185Z,33.07
2018-07-25T09:31:12.186Z,33.14
2018-07-25T09:33:05.137Z,33.36
2018-07-25T09:34:05.212Z,33.34
2018-07-25T09:35:58.119Z,33.30
2018-07-25T09:36:58.121Z,33.39
2018-07-25T09:38:51.088Z,33.30
2018-07-25T09:39:51.090Z,33.39
2018-07-25T09:41:44.036Z,33.42
2018-07-25T09:42:44.056Z,33.14
2018-07-25T09:44:37.022Z,33.36
2018-07-25T09:45:37.040Z,33.39
2018-07-25T09:47:29.965Z,33.11
2018-07-25T09:48:29.990Z,32.89
2018-07-25T09:50:22.975Z,32.54
2018-07-25T09:51:22.956Z,32.66
2018-07-25T09:53:15.984Z,32.71
2018-07-25T09:54:15.931Z,32.66
2018-07-25T09:56:08.883Z,32.80
2018-07-25T09:57:08.890Z,32.98
2018-07-25T09:59:01.906Z,33.19
2018-07-25T10:00:01.854Z,33.20
2018-07-25T10:01:54.803Z,33.48
2018-07-25T10:02:54.822Z,33.43
2018-07-25T10:04:47.785Z,33.65
2018-07-25T10:05:47.822Z,33.58
2018-07-25T10:07:40.789Z,33.39
2018-07-25T10:08:40.753Z,33.30
2018-07-25T10:10:33.719Z,33.46
2018-07-25T10:11:33.718Z,33.51
2018-07-25T10:13:26.665Z,33.60
2018-07-25T10:14:26.687Z,33.61
2018-07-25T10:16:19.649Z,33.79
2018-07-25T10:17:19.652Z,33.70
2018-07-25T10:19:12.635Z,33.80
2018-07-25T10:20:12.619Z,33.76
2018-07-25T10:22:05.571Z,33.71
2018-07-25T10:23:05.594Z,33.85
2018-07-25T10:24:58.549Z,33.83
2018-07-25T10:25:58.551Z,33.85
2018-07-25T10:27:51.501Z,33.94
2018-07-25T10:28:51.518Z,33.97
2018-07-25T10:30:44.494Z,33.67
2018-07-25T10:31:44.508Z,33.48
2018-07-25T10:33:37.426Z,33.43
2018-07-25T10:34:37.449Z,33.61
2018-07-25T10:36:30.430Z,33.73
2018-07-25T10:37:30.440Z,33.89
2018-07-25T10:39:23.394Z,33.90
2018-07-25T10:40:23.388Z,34.00
2018-07-25T10:42:16.333Z,33.80
2018-07-25T10:43:16.354Z,33.80
2018-07-25T10:45:09.315Z,33.83
2018-07-25T10:46:09.315Z,33.65
2018-07-25T10:48:02.263Z,33.83
2018-07-25T10:49:02.284Z,33.85
2018-07-25T10:50:55.248Z,33.90
2018-07-25T10:51:55.252Z,34.04
2018-07-25T10:53:48.194Z,34.16
2018-07-25T10:54:48.221Z,34.19
2018-07-25T10:56:41.181Z,34.23
2018-07-25T10:57:41.185Z,34.31
2018-07-25T10:59:34.154Z,34.45
2018-07-25T11:00:34.158Z,34.42
2018-07-25T11:02:27.100Z,34.60
2018-07-25T11:03:27.124Z,34.72
2018-07-25T11:05:20.085Z,34.08
2018-07-25T11:06:20.089Z,34.09
2018-07-25T11:08:13.035Z,34.24
2018-07-25T11:09:13.059Z,34.31
2018-07-25T11:11:06.022Z,34.44
2018-07-25T11:12:06.029Z,34.48
2018-07-25T11:13:58.968Z,34.56
2018-07-25T11:14:58.992Z,34.61
2018-07-25T11:16:51.954Z,34.63
2018-07-25T11:17:51.960Z,34.64
2018-07-25T11:19:44.927Z,34.69
2018-07-25T11:20:44.930Z,34.51
2018-07-25T11:22:37.884Z,34.36
2018-07-25T11:23:37.900Z,34.54
2018-07-25T11:25:30.864Z,34.70
2018-07-25T11:26:30.867Z,34.73
2018-07-25T11:28:23.806Z,34.73
2018-07-25T11:29:23.832Z,34.64
2018-07-25T11:31:16.798Z,34.77
2018-07-25T11:32:16.801Z,34.81
2018-07-25T11:34:09.742Z,35.03
2018-07-25T11:35:09.783Z,35.10
2018-07-25T11:37:02.730Z,34.91
2018-07-25T11:38:02.787Z,34.91
2018-07-25T11:39:55.699Z,34.86
2018-07-25T11:40:55.703Z,34.89
2018-07-25T11:42:48.645Z,34.94
2018-07-25T11:43:48.673Z,34.89
2018-07-25T11:45:41.639Z,35.01
2018-07-25T11:46:41.638Z,35.11
2018-07-25T11:48:34.587Z,34.98
2018-07-25T11:49:34.606Z,35.02
2018-07-25T11:51:27.570Z,34.91
2018-07-25T11:52:27.576Z,34.91
2018-07-25T11:54:20.517Z,35.03
2018-07-25T11:55:20.627Z,34.96
2018-07-25T11:57:13.509Z,35.08
2018-07-25T11:58:13.517Z,35.07
2018-07-25T12:00:06.479Z,35.20
2018-07-25T12:01:06.502Z,35.32
2018-07-25T12:02:59.426Z,35.45
2018-07-25T12:03:59.447Z,35.44
2018-07-25T12:05:52.414Z,35.36
2018-07-25T12:06:52.422Z,35.42
2018-07-25T12:08:45.359Z,35.06
2018-07-25T12:09:45.388Z,35.13
2018-07-25T12:11:38.363Z,35.23
2018-07-25T12:12:38.371Z,35.36
2018-07-25T12:14:31.310Z,35.44
2018-07-25T12:15:31.337Z,35.40
2018-07-25T12:17:24.322Z,35.15
2018-07-25T12:18:24.321Z,35.08
2018-07-25T12:20:17.288Z,35.13
2018-07-25T12:21:17.303Z,35.32
2018-07-25T12:23:10.239Z,35.39
2018-07-25T12:24:10.260Z,35.45
2018-07-25T12:26:03.227Z,35.44
2018-07-25T12:27:03.233Z,35.48
2018-07-25T12:28:56.181Z,35.63
2018-07-25T12:29:56.220Z,35.52
2018-07-25T12:31:49.163Z,35.63
2018-07-25T12:32:49.169Z,35.57
2018-07-25T12:34:42.117Z,35.39
2018-07-25T12:35:42.141Z,35.35
2018-07-25T12:37:35.105Z,35.36
2018-07-25T12:38:35.109Z,35.33
2018-07-25T12:40:28.076Z,35.44
2018-07-25T12:41:28.073Z,35.44
2018-07-25T12:43:21.020Z,35.35
2018-07-25T12:44:21.044Z,35.39
2018-07-25T12:46:14.012Z,35.23
2018-07-25T12:47:14.017Z,35.13
2018-07-25T12:49:06.960Z,35.36
2018-07-25T12:50:06.985Z,35.40
2018-07-25T12:51:59.955Z,35.55
2018-07-25T12:52:59.959Z,35.67
2018-07-25T12:54:52.900Z,35.76
2018-07-25T12:55:52.926Z,35.72
2018-07-25T12:57:45.895Z,35.88
2018-07-25T12:58:45.899Z,35.72
2018-07-25T13:00:38.859Z,35.79
2018-07-25T13:01:38.868Z,35.88
2018-07-25T13:03:31.895Z,35.66
2018-07-25T13:04:31.914Z,35.55
2018-07-25T13:06:24.972Z,35.55
2018-07-25T13:07:24.971Z,35.63
2018-07-25T13:09:18.019Z,35.64
2018-07-25T13:10:17.956Z,35.66
2018-07-25T13:12:10.931Z,35.67
2018-07-25T13:13:10.932Z,35.79
2018-07-25T13:15:03.878Z,35.73
2018-07-25T13:16:03.898Z,35.48
2018-07-25T13:17:56.866Z,35.45
2018-07-25T13:18:56.874Z,35.42
2018-07-25T13:20:49.819Z,35.47
2018-07-25T13:21:49.844Z,35.57
2018-07-25T13:23:42.806Z,35.67
2018-07-25T13:24:42.812Z,35.73
2018-07-25T13:26:35.775Z,35.79
2018-07-25T13:27:35.810Z,35.79
2018-07-25T13:29:28.726Z,35.69
2018-07-25T13:30:28.748Z,35.72
2018-07-25T13:32:21.712Z,35.62
2018-07-25T13:33:21.715Z,35.63
2018-07-25T13:35:14.660Z,35.54
2018-07-25T13:36:14.685Z,35.57
2018-07-25T13:38:07.648Z,35.33
2018-07-25T13:39:07.655Z,35.40
2018-07-25T13:41:00.610Z,35.45
2018-07-25T13:42:00.636Z,35.50
2018-07-25T13:43:53.600Z,35.55
2018-07-25T13:44:53.605Z,35.64
2018-07-25T13:46:46.572Z,35.73
2018-07-25T13:47:46.583Z,35.88
2018-07-25T13:49:39.522Z,35.76
2018-07-25T13:50:39.550Z,35.70
2018-07-25T13:52:32.511Z,35.89
2018-07-25T13:53:32.517Z,35.97
2018-07-25T13:55:25.458Z,35.82
2018-07-25T13:56:25.480Z,35.86
2018-07-25T13:58:18.446Z,35.91
2018-07-25T13:59:18.450Z,35.88
2018-07-25T14:01:11.407Z,36.00
2018-07-25T14:02:11.423Z,36.11
2018-07-25T14:04:04.396Z,35.95
2018-07-25T14:05:04.396Z,35.88
2018-07-25T14:06:57.361Z,35.93
2018-07-25T14:07:57.367Z,35.82
2018-07-25T14:09:50.309Z,35.88
2018-07-25T14:10:50.334Z,35.93
2018-07-25T14:12:43.293Z,35.92
2018-07-25T14:13:43.301Z,35.72
2018-07-25T14:15:36.248Z,35.88
2018-07-25T14:16:36.271Z,36.00
2018-07-25T14:18:29.237Z,36.00
2018-07-25T14:19:29.244Z,36.04
2018-07-25T14:21:22.194Z,36.17
2018-07-25T14:22:22.211Z,36.17
2018-07-25T14:24:15.253Z,36.21
2018-07-25T14:25:15.181Z,36.07
2018-07-25T14:27:08.184Z,35.97
2018-07-25T14:28:08.151Z,36.03
2018-07-25T14:30:01.123Z,35.84
2018-07-25T14:31:01.120Z,35.81
2018-07-25T14:32:54.091Z,35.76
2018-07-25T14:33:54.096Z,35.84
2018-07-25T14:35:47.042Z,35.85
2018-07-25T14:36:47.062Z,35.97
2018-07-25T14:38:40.038Z,36.17
2018-07-25T14:39:40.096Z,36.17
2018-07-25T14:41:32.980Z,36.21
2018-07-25T14:42:33.002Z,36.21
2018-07-25T14:44:26.049Z,36.27
2018-07-25T14:45:25.980Z,36.26
2018-07-25T14:47:19.090Z,36.46
2018-07-25T14:48:18.945Z,36.39
2018-07-25T14:50:11.895Z,36.54
2018-07-25T14:51:12.013Z,36.51
2018-07-25T14:53:04.889Z,36.54
2018-07-25T14:54:04.887Z,36.45
2018-07-25T14:55:57.840Z,36.49
2018-07-25T14:56:57.889Z,36.49
2018-07-25T14:58:50.823Z,36.51
2018-07-25T14:59:50.834Z,36.52
2018-07-25T15:01:43.776Z,36.36
2018-07-25T15:02:43.820Z,36.58
2018-07-25T15:04:36.775Z,36.83
2018-07-25T15:05:36.778Z,37.02
2018-07-25T15:07:29.743Z,37.14
2018-07-25T15:08:29.746Z,37.13
2018-07-25T15:10:22.696Z,37.38
2018-07-25T15:11:22.717Z,37.17
2018-07-25T15:13:15.684Z,37.01
2018-07-25T15:14:15.693Z,37.05
2018-07-25T15:16:08.636Z,36.86
2018-07-25T15:17:08.665Z,36.33
2018-07-25T15:19:01.632Z,35.32
2018-07-25T15:20:01.635Z,34.83
2018-07-25T15:21:54.583Z,34.53
2018-07-25T15:22:54.606Z,34.44
2018-07-25T15:24:47.574Z,34.26
2018-07-25T15:25:47.582Z,34.31
2018-07-25T15:27:40.547Z,34.57
2018-07-25T15:28:40.550Z,34.81
2018-07-25T15:30:33.493Z,35.10
2018-07-25T15:31:33.519Z,34.99
2018-07-25T15:33:26.484Z,34.83
2018-07-25T15:34:26.484Z,34.61
2018-07-25T15:36:19.444Z,34.41
2018-07-25T15:37:19.462Z,34.22
2018-07-25T15:39:12.424Z,34.41
2018-07-25T15:40:12.457Z,34.56
2018-07-25T15:42:05.373Z,34.86
2018-07-25T15:43:05.397Z,34.94
2018-07-25T15:44:58.365Z,35.18
2018-07-25T15:45:58.368Z,35.30
2018-07-25T15:47:51.329Z,35.39
2018-07-25T15:48:51.333Z,35.57
2018-07-25T15:50:44.282Z,35.42
2018-07-25T15:51:44.304Z,35.50
2018-07-25T15:53:37.274Z,35.55
2018-07-25T15:54:37.278Z,35.69
2018-07-25T15:56:30.226Z,35.63
2018-07-25T15:57:30.248Z,35.60
2018-07-25T15:59:23.213Z,35.64
2018-07-25T16:00:23.219Z,35.64
2018-07-25T16:02:16.161Z,35.57
2018-07-25T16:03:16.191Z,35.58
2018-07-25T16:05:09.157Z,35.62
2018-07-25T16:06:09.157Z,35.69
2018-07-25T16:08:02.125Z,35.70
2018-07-25T16:09:02.128Z,35.63
2018-07-25T16:10:55.101Z,35.44
2018-07-25T16:11:55.101Z,35.45
2018-07-25T16:13:48.066Z,35.33
2018-07-25T16:14:48.067Z,35.32
2018-07-25T16:16:41.009Z,35.13
2018-07-25T16:17:41.038Z,34.77
2018-07-25T16:19:34.003Z,34.39
2018-07-25T16:20:34.008Z,34.24
2018-07-25T16:22:26.955Z,33.89
2018-07-25T16:23:26.978Z,33.63
2018-07-25T16:25:19.945Z,33.49
2018-07-25T16:26:19.953Z,33.55
2018-07-25T16:28:12.918Z,33.46
2018-07-25T16:29:12.925Z,33.46
2018-07-25T16:31:05.871Z,33.22
2018-07-25T16:32:05.893Z,32.98
2018-07-25T16:33:58.859Z,32.91
2018-07-25T16:34:58.863Z,32.93
2018-07-25T16:36:51.810Z,32.76
2018-07-25T16:37:51.834Z,32.80
2018-07-25T16:39:44.794Z,32.88
2018-07-25T16:40:44.793Z,32.91
2018-07-25T16:42:37.736Z,32.84
2018-07-25T16:43:37.755Z,32.77
2018-07-25T16:45:30.771Z,32.79
2018-07-25T16:46:30.734Z,32.48
2018-07-25T16:48:23.685Z,32.29
2018-07-25T16:49:23.689Z,32.24
2018-07-25T16:51:16.631Z,32.27
2018-07-25T16:52:16.652Z,32.42
2018-07-25T16:54:09.621Z,32.66
2018-07-25T16:55:09.622Z,32.76
2018-07-25T16:57:02.564Z,32.77
2018-07-25T16:58:02.588Z,32.86
2018-07-25T16:59:55.548Z,32.88
2018-07-25T17:00:55.551Z,32.93
2018-07-25T17:02:48.492Z,32.85
2018-07-25T17:03:48.514Z,32.86
2018-07-25T17:05:41.479Z,32.69
2018-07-25T17:06:41.481Z,32.73
2018-07-25T17:08:34.445Z,32.57
2018-07-25T17:09:34.450Z,32.61
2018-07-25T17:11:27.392Z,32.66
2018-07-25T17:12:27.414Z,32.52
2018-07-25T17:14:20.371Z,32.47
2018-07-25T17:15:20.382Z,32.43
2018-07-25T17:17:13.345Z,32.42
2018-07-25T17:18:13.367Z,32.42
2018-07-25T17:20:06.335Z,32.47
2018-07-25T17:21:06.340Z,32.48
2018-07-25T17:22:59.277Z,32.40
2018-07-25T17:23:59.298Z,32.37
2018-07-25T17:25:52.260Z,32.37
2018-07-25T17:26:52.259Z,32.29
2018-07-25T17:28:45.225Z,32.22
2018-07-25T17:29:45.223Z,32.29
2018-07-25T17:31:38.164Z,32.22
2018-07-25T17:32:38.188Z,32.29
2018-07-25T17:34:31.146Z,32.32
2018-07-25T17:35:31.146Z,32.25
2018-07-25T17:37:24.091Z,32.20
2018-07-25T17:38:24.127Z,32.17
2018-07-25T17:40:17.119Z,32.11
2018-07-25T17:41:17.168Z,32.10
2018-07-25T17:43:10.064Z,32.00
2018-07-25T17:44:10.158Z,31.85
2018-07-25T17:46:03.042Z,31.91
2018-07-25T17:47:03.059Z,31.98
2018-07-25T17:48:56.009Z,31.95
2018-07-25T17:49:56.014Z,31.91
2018-07-25T17:51:48.950Z,31.80
2018-07-25T17:52:48.991Z,31.76
2018-07-25T17:54:41.935Z,31.76
2018-07-25T17:55:42.000Z,31.65
2018-07-25T17:57:34.894Z,31.64
2018-07-25T17:58:34.910Z,31.70
2018-07-25T18:00:27.859Z,31.36
2018-07-25T18:01:27.860Z,31.36
2018-07-25T18:03:20.835Z,31.23
2018-07-25T18:04:20.820Z,31.30
2018-07-25T18:06:13.779Z,31.27
2018-07-25T18:07:13.784Z,31.18
2018-07-25T18:09:06.739Z,31.12
2018-07-25T18:10:06.744Z,30.89
2018-07-25T18:11:59.697Z,30.87
2018-07-25T18:12:59.722Z,30.90
2018-07-25T18:14:52.781Z,30.84
2018-07-25T18:15:52.755Z,30.84
2018-07-25T18:17:45.735Z,30.83
2018-07-25T18:18:45.681Z,30.78
2018-07-25T18:20:38.635Z,30.80
2018-07-25T18:21:38.638Z,30.84
2018-07-25T18:23:31.583Z,30.89
2018-07-25T18:24:31.598Z,30.87
2018-07-25T18:26:24.560Z,30.76
2018-07-25T18:27:24.561Z,30.78
2018-07-25T18:29:17.540Z,30.80
2018-07-25T18:30:17.526Z,30.83
2018-07-25T18:32:10.460Z,30.81
2018-07-25T18:33:10.482Z,30.87
2018-07-25T18:35:03.442Z,30.75
2018-07-25T18:36:03.445Z,30.71
2018-07-25T18:37:56.386Z,30.57
2018-07-25T18:38:56.404Z,30.62
2018-07-25T18:40:49.380Z,30.59
2018-07-25T18:41:49.370Z,30.57
2018-07-25T18:43:42.304Z,30.56
2018-07-25T18:44:42.321Z,30.62
2018-07-25T18:46:35.282Z,30.45
2018-07-25T18:47:35.282Z,30.46
2018-07-25T18:49:28.250Z,30.36
2018-07-25T18:50:28.243Z,30.23
2018-07-25T18:52:21.184Z,30.24
2018-07-25T18:53:21.200Z,30.24
2018-07-25T18:55:14.159Z,30.15
2018-07-25T18:56:14.229Z,30.12
2018-07-25T18:58:07.100Z,30.00
2018-07-25T18:59:07.122Z,30.00
2018-07-25T19:01:00.085Z,30.02